Time;durP1;ratioP1;P1;durP2;ratioP2;P2;SDS_P1;SDS_P2;PMS_P1;PMS_P2;Temp;Humidity;BMP_temperature;BMP_pressure;BME280_temperature;BME280_humidity;BME280_pressure;Samples;Min_cycle;Max_cycle;Signal;HPM_P1;HPM_P2
2023/07/22 00:01:02;;;;;;;;;;;18.00;99.90;;;;;;7329066;19;9530;-79
2023/07/22 00:03:31;;;;;;;;;;;17.80;99.90;;;;;;7329113;19;9182;-78
2023/07/22 00:06:11;;;;;;;;;;;17.80;99.90;;;;;;7328459;19;9204;-79
2023/07/22 00:08:41;;;;;;;;;;;17.90;99.90;;;;;;7326570;19;9241;-78
2023/07/22 00:11:10;;;;;;;;;;;17.90;99.90;;;;;;7326995;19;9018;-78
2023/07/22 00:13:39;;;;;;;;;;;17.80;99.90;;;;;;7328801;19;9266;-78
2023/07/22 00:16:10;;;;;;;;;;;17.80;99.90;;;;;;7328606;19;11460;-78
2023/07/22 00:18:40;;;;;;;;;;;17.70;99.90;;;;;;7328317;19;9277;-78
2023/07/22 00:21:11;;;;;;;;;;;17.60;99.90;;;;;;7327437;19;9242;-78
2023/07/22 00:23:40;;;;;;;;;;;17.30;99.90;;;;;;7328334;19;9184;-78
2023/07/22 00:26:09;;;;;;;;;;;17.20;99.90;;;;;;7328346;19;10367;-79
2023/07/22 00:28:39;;;;;;;;;;;17.50;99.90;;;;;;7327696;19;9226;-78
2023/07/22 00:31:08;;;;;;;;;;;17.70;99.90;;;;;;7328022;19;9200;-78
2023/07/22 00:33:37;;;;;;;;;;;17.30;99.90;;;;;;7327790;19;10170;-78
2023/07/22 00:36:06;;;;;;;;;;;16.50;99.90;;;;;;7326947;19;9165;-78
2023/07/22 00:38:39;;;;;;;;;;;15.80;99.90;;;;;;7327784;19;10867;-77
2023/07/22 00:41:09;;;;;;;;;;;15.90;99.90;;;;;;7327827;19;9488;-78
2023/07/22 00:43:38;;;;;;;;;;;15.80;99.90;;;;;;7330241;19;9219;-78
2023/07/22 00:46:07;;;;;;;;;;;15.50;99.90;;;;;;7327342;19;9420;-78
2023/07/22 00:48:36;;;;;;;;;;;15.10;99.90;;;;;;7327330;19;9162;-78
2023/07/22 00:51:05;;;;;;;;;;;15.10;99.90;;;;;;7328876;19;9208;-78
2023/07/22 00:53:34;;;;;;;;;;;15.00;99.90;;;;;;7326952;19;8944;-78
2023/07/22 00:56:07;;;;;;;;;;;14.90;99.90;;;;;;7327388;19;9213;-80
2023/07/22 00:58:36;;;;;;;;;;;14.70;99.90;;;;;;7325495;19;10425;-78
2023/07/22 01:01:05;;;;;;;;;;;14.70;99.90;;;;;;7327132;19;10269;-77
2023/07/22 01:03:34;;;;;;;;;;;14.50;99.90;;;;;;7327178;19;9125;-78
2023/07/22 01:06:03;;;;;;;;;;;14.40;99.90;;;;;;7326395;19;9485;-78
2023/07/22 01:08:32;;;;;;;;;;;14.20;99.90;;;;;;7325570;19;9441;-78
2023/07/22 01:11:02;;;;;;;;;;;14.20;99.90;;;;;;7326916;19;9177;-78
2023/07/22 01:13:33;;;;;;;;;;;14.20;99.90;;;;;;7326902;19;9275;-78
2023/07/22 01:16:03;;;;;;;;;;;14.50;99.90;;;;;;7327611;19;10157;-78
2023/07/22 01:18:34;;;;;;;;;;;14.40;99.90;;;;;;7326642;19;8948;-80
2023/07/22 01:21:03;;;;;;;;;;;14.30;99.90;;;;;;7327065;19;9194;-79
2023/07/22 01:23:35;;;;;;;;;;;14.30;99.90;;;;;;7326393;19;9196;-79
2023/07/22 01:26:05;;;;;;;;;;;14.20;99.90;;;;;;7326375;19;9406;-79
2023/07/22 01:28:38;;;;;;;;;;;14.00;99.90;;;;;;7326245;19;10562;-79
2023/07/22 01:31:07;;;;;;;;;;;13.80;99.90;;;;;;7326222;19;9179;-80
2023/07/22 01:33:37;;;;;;;;;;;13.90;99.90;;;;;;7325153;19;9485;-80
2023/07/22 01:36:07;;;;;;;;;;;14.00;99.90;;;;;;7325690;19;10353;-80
2023/07/22 01:38:39;;;;;;;;;;;13.70;99.90;;;;;;7325854;19;9225;-79
2023/07/22 01:41:08;;;;;;;;;;;13.60;99.90;;;;;;7325886;19;10316;-79
2023/07/22 01:43:37;;;;;;;;;;;13.60;99.90;;;;;;7328652;19;9201;-80
2023/07/22 01:46:06;;;;;;;;;;;13.60;99.90;;;;;;7325668;19;9444;-80
2023/07/22 01:48:35;;;;;;;;;;;13.80;99.90;;;;;;7324910;19;8945;-80
2023/07/22 01:51:05;;;;;;;;;;;13.80;99.90;;;;;;7323961;19;9454;-80
2023/07/22 01:53:35;;;;;;;;;;;13.80;99.90;;;;;;7325762;19;9185;-80
2023/07/22 01:56:07;;;;;;;;;;;13.80;99.90;;;;;;7327374;19;9192;-79
2023/07/22 01:58:36;;;;;;;;;;;13.80;99.90;;;;;;7323154;19;8995;-79
2023/07/22 02:01:07;;;;;;;;;;;13.50;99.90;;;;;;7329030;19;9160;-79
2023/07/22 02:03:36;;;;;;;;;;;13.50;99.90;;;;;;7323604;19;9182;-79
2023/07/22 02:06:06;;;;;;;;;;;13.40;99.90;;;;;;7326860;19;10161;-80
2023/07/22 02:08:36;;;;;;;;;;;13.50;99.90;;;;;;7326156;19;10221;-80
2023/07/22 02:11:09;;;;;;;;;;;13.50;99.90;;;;;;7323167;19;9161;-80
2023/07/22 02:13:38;;;;;;;;;;;13.40;99.90;;;;;;7328703;19;9205;-80
2023/07/22 02:16:11;;;;;;;;;;;13.30;99.90;;;;;;7324599;19;9475;-80
2023/07/22 02:18:41;;;;;;;;;;;13.20;99.90;;;;;;7323679;19;9277;-80
2023/07/22 02:21:10;;;;;;;;;;;13.10;99.90;;;;;;7326663;19;9185;-80
2023/07/22 02:23:39;;;;;;;;;;;13.10;99.90;;;;;;7324417;19;9477;-79
2023/07/22 02:26:11;;;;;;;;;;;13.10;99.90;;;;;;7324155;19;9226;-79
2023/07/22 02:28:40;;;;;;;;;;;13.00;99.90;;;;;;7324037;19;9478;-79
2023/07/22 02:31:09;;;;;;;;;;;13.10;99.90;;;;;;7321891;19;9217;-80
2023/07/22 02:33:37;;;;;;;;;;;13.00;99.90;;;;;;7324178;19;9429;-79
2023/07/22 02:36:08;;;;;;;;;;;12.80;99.90;;;;;;7323965;19;9321;-80
2023/07/22 02:38:37;;;;;;;;;;;12.70;99.90;;;;;;7326754;19;9201;-80
2023/07/22 02:41:09;;;;;;;;;;;12.60;99.90;;;;;;7324319;19;9495;-79
2023/07/22 02:43:38;;;;;;;;;;;12.50;99.90;;;;;;7324173;19;9212;-79
2023/07/22 02:46:09;;;;;;;;;;;12.40;99.90;;;;;;7323018;19;9486;-79
2023/07/22 02:48:39;;;;;;;;;;;12.50;99.90;;;;;;7323822;19;9183;-79
2023/07/22 02:51:10;;;;;;;;;;;12.40;99.90;;;;;;7321764;19;9656;-79
2023/07/22 02:53:41;;;;;;;;;;;12.50;99.90;;;;;;7323857;19;9218;-80
2023/07/22 02:56:13;;;;;;;;;;;12.40;99.90;;;;;;7323779;19;9197;-79
2023/07/22 02:58:42;;;;;;;;;;;12.40;99.90;;;;;;7323828;19;9204;-80
2023/07/22 03:01:11;;;;;;;;;;;12.40;99.90;;;;;;7322491;19;10614;-79
2023/07/22 03:03:40;;;;;;;;;;;12.40;99.90;;;;;;7323271;19;9213;-79
2023/07/22 03:06:09;;;;;;;;;;;12.30;99.90;;;;;;7323500;19;9154;-79
2023/07/22 03:08:38;;;;;;;;;;;12.30;99.90;;;;;;7321827;19;9305;-79
2023/07/22 03:11:07;;;;;;;;;;;12.30;99.90;;;;;;7321526;19;9204;-80
2023/07/22 03:13:39;;;;;;;;;;;12.30;99.90;;;;;;7327426;19;10213;-80
2023/07/22 03:16:08;;;;;;;;;;;12.30;99.90;;;;;;7322308;19;9295;-79
2023/07/22 03:18:39;;;;;;;;;;;12.30;99.90;;;;;;7330421;19;10199;-79
2023/07/22 03:21:09;;;;;;;;;;;12.30;99.90;;;;;;7330508;19;9217;-80
2023/07/22 03:23:38;;;;;;;;;;;12.30;99.90;;;;;;7330397;19;9199;-79
2023/07/22 03:26:08;;;;;;;;;;;12.20;99.90;;;;;;7330737;19;9459;-79
2023/07/22 03:28:41;;;;;;;;;;;12.20;99.90;;;;;;7330951;19;9209;-79
2023/07/22 03:31:10;;;;;;;;;;;12.10;99.90;;;;;;7327452;19;9213;-79
2023/07/22 03:33:39;;;;;;;;;;;12.10;99.90;;;;;;7329960;19;9447;-79
2023/07/22 03:36:08;;;;;;;;;;;12.10;99.90;;;;;;7330056;19;9516;-79
2023/07/22 03:38:37;;;;;;;;;;;12.10;99.90;;;;;;7330001;19;9218;-79
2023/07/22 03:41:06;;;;;;;;;;;12.10;99.90;;;;;;7331484;19;9178;-79
2023/07/22 03:43:35;;;;;;;;;;;12.10;99.90;;;;;;7329117;19;9201;-79
2023/07/22 03:46:06;;;;;;;;;;;12.10;99.90;;;;;;7329762;19;9165;-79
2023/07/22 03:48:35;;;;;;;;;;;12.00;99.90;;;;;;7329760;19;9161;-79
2023/07/22 03:51:04;;;;;;;;;;;12.00;99.90;;;;;;7327708;19;9304;-79
2023/07/22 03:53:33;;;;;;;;;;;12.00;99.90;;;;;;7329550;19;9283;-79
2023/07/22 03:56:02;;;;;;;;;;;12.00;99.90;;;;;;7329316;19;10347;-79
2023/07/22 03:58:31;;;;;;;;;;;12.00;99.90;;;;;;7326023;19;9193;-79
2023/07/22 04:01:00;;;;;;;;;;;12.00;99.90;;;;;;7329124;19;9341;-80
2023/07/22 04:03:32;;;;;;;;;;;12.00;99.90;;;;;;7329036;19;9185;-79
2023/07/22 04:06:01;;;;;;;;;;;12.10;99.90;;;;;;7329055;19;9114;-80
2023/07/22 04:08:30;;;;;;;;;;;12.20;99.90;;;;;;7327052;19;9333;-79
2023/07/22 04:11:00;;;;;;;;;;;12.20;99.90;;;;;;7327559;19;9484;-79
2023/07/22 04:13:30;;;;;;;;;;;12.20;99.90;;;;;;7327759;19;9469;-80
2023/07/22 04:15:59;;;;;;;;;;;12.20;99.90;;;;;;7328838;19;9449;-80
2023/07/22 04:18:33;;;;;;;;;;;12.30;99.90;;;;;;7328463;19;9489;-80
2023/07/22 04:21:05;;;;;;;;;;;12.40;99.90;;;;;;7331714;19;9208;-80
2023/07/22 04:23:35;;;;;;;;;;;12.40;99.90;;;;;;7328387;19;9210;-79
2023/07/22 04:26:07;;;;;;;;;;;12.40;99.90;;;;;;7328595;19;9109;-79
2023/07/22 04:28:36;;;;;;;;;;;12.50;99.90;;;;;;7326033;19;9153;-79
2023/07/22 04:31:06;;;;;;;;;;;12.50;99.90;;;;;;7326869;19;9173;-79
2023/07/22 04:33:35;;;;;;;;;;;12.80;99.90;;;;;;7328059;19;9159;-79
2023/07/22 04:36:07;;;;;;;;;;;12.90;99.90;;;;;;7327903;19;9522;-80
2023/07/22 04:38:35;;;;;;;;;;;12.90;99.90;;;;;;7327998;19;9608;-79
2023/07/22 04:41:06;;;;;;;;;;;12.80;99.90;;;;;;7331305;19;9181;-80
2023/07/22 04:43:35;;;;;;;;;;;12.70;99.90;;;;;;7326910;19;9133;-80
2023/07/22 04:46:04;;;;;;;;;;;12.80;99.90;;;;;;7327541;19;9422;-79
2023/07/22 04:48:33;;;;;;;;;;;12.80;99.90;;;;;;7327627;19;9298;-79
2023/07/22 04:51:02;;;;;;;;;;;12.80;99.90;;;;;;7326132;19;9122;-80
2023/07/22 04:53:34;;;;;;;;;;;12.90;99.90;;;;;;7327581;19;9221;-79
2023/07/22 04:56:02;;;;;;;;;;;13.00;99.90;;;;;;7326761;19;9511;-80
2023/07/22 04:58:31;;;;;;;;;;;13.00;99.90;;;;;;7325051;19;9477;-80
2023/07/22 05:01:01;;;;;;;;;;;13.10;99.90;;;;;;7326849;19;9278;-80
2023/07/22 05:03:30;;;;;;;;;;;13.10;99.90;;;;;;7327141;19;9479;-80
2023/07/22 05:06:01;;;;;;;;;;;13.00;99.90;;;;;;7325332;19;10528;-80
2023/07/22 05:08:32;;;;;;;;;;;13.00;99.90;;;;;;7325436;19;9493;-79
2023/07/22 05:11:01;;;;;;;;;;;13.00;99.90;;;;;;7324891;19;9459;-80
2023/07/22 05:13:30;;;;;;;;;;;13.10;99.90;;;;;;7326928;19;9220;-79
2023/07/22 05:15:59;;;;;;;;;;;13.10;99.90;;;;;;7326785;19;9210;-79
2023/07/22 05:18:28;;;;;;;;;;;13.10;99.90;;;;;;7326279;19;9173;-80
2023/07/22 05:20:57;;;;;;;;;;;13.10;99.90;;;;;;7326376;19;9221;-79
2023/07/22 05:23:26;;;;;;;;;;;13.10;99.90;;;;;;7326057;19;9271;-79
2023/07/22 05:25:59;;;;;;;;;;;13.20;99.90;;;;;;7325449;19;9296;-79
2023/07/22 05:28:28;;;;;;;;;;;13.20;99.90;;;;;;7326362;19;9190;-79
2023/07/22 05:30:58;;;;;;;;;;;13.30;99.90;;;;;;7325405;19;10557;-79
2023/07/22 05:33:27;;;;;;;;;;;13.40;99.90;;;;;;7326270;19;10192;-79
2023/07/22 05:35:56;;;;;;;;;;;13.30;99.90;;;;;;7325802;19;9496;-79
2023/07/22 05:38:25;;;;;;;;;;;13.40;99.90;;;;;;7326058;19;9606;-80
2023/07/22 05:40:55;;;;;;;;;;;13.40;99.90;;;;;;7327838;19;9217;-79
2023/07/22 05:43:27;;;;;;;;;;;13.40;99.90;;;;;;7327653;19;9194;-80
2023/07/22 05:45:55;;;;;;;;;;;13.50;99.90;;;;;;7326050;19;9176;-79
2023/07/22 05:48:24;;;;;;;;;;;13.60;99.90;;;;;;7325462;19;9253;-79
2023/07/22 05:50:53;;;;;;;;;;;13.60;99.90;;;;;;7325197;19;9102;-80
2023/07/22 05:53:22;;;;;;;;;;;13.60;99.90;;;;;;7325613;19;9518;-79
2023/07/22 05:55:51;;;;;;;;;;;13.60;99.90;;;;;;7324537;19;9443;-79
2023/07/22 05:58:20;;;;;;;;;;;13.60;99.90;;;;;;7323479;19;9270;-80
2023/07/22 06:00:52;;;;;;;;;;;13.70;99.90;;;;;;7324879;19;9581;-80
2023/07/22 06:03:21;;;;;;;;;;;13.70;99.90;;;;;;7324878;19;9519;-80
2023/07/22 06:05:50;;;;;;;;;;;13.80;99.90;;;;;;7324931;19;9389;-79
2023/07/22 06:08:19;;;;;;;;;;;13.90;99.90;;;;;;7323897;19;9532;-79
2023/07/22 06:10:48;;;;;;;;;;;14.00;99.90;;;;;;7323495;19;9207;-79
2023/07/22 06:13:17;;;;;;;;;;;14.00;99.90;;;;;;7324522;19;9244;-79
2023/07/22 06:15:46;;;;;;;;;;;14.20;99.90;;;;;;7324754;19;8944;-80
2023/07/22 06:18:18;;;;;;;;;;;14.20;99.90;;;;;;7324462;19;9330;-79
2023/07/22 06:20:47;;;;;;;;;;;14.20;99.90;;;;;;7324538;19;9169;-79
2023/07/22 06:23:16;;;;;;;;;;;14.30;99.90;;;;;;7323476;19;9201;-79
2023/07/22 06:25:45;;;;;;;;;;;14.40;99.90;;;;;;7324113;19;9197;-80
2023/07/22 06:28:15;;;;;;;;;;;14.50;99.90;;;;;;7324301;19;9402;-80
2023/07/22 06:30:44;;;;;;;;;;;14.50;99.90;;;;;;7323925;19;9169;-79
2023/07/22 06:33:13;;;;;;;;;;;14.50;99.90;;;;;;7324244;19;9435;-79
2023/07/22 06:35:44;;;;;;;;;;;14.70;99.90;;;;;;7324020;19;10370;-80
2023/07/22 06:38:13;;;;;;;;;;;14.80;99.90;;;;;;7327008;19;9199;-80
2023/07/22 06:40:43;;;;;;;;;;;15.00;99.90;;;;;;7323871;19;9162;-80
2023/07/22 06:43:12;;;;;;;;;;;15.10;99.90;;;;;;7323873;19;9176;-80
2023/07/22 06:45:41;;;;;;;;;;;15.30;99.90;;;;;;7323706;19;10968;-80
2023/07/22 06:48:10;;;;;;;;;;;15.30;99.90;;;;;;7323551;19;10331;-80
2023/07/22 06:50:39;;;;;;;;;;;15.60;99.90;;;;;;7323636;19;9655;-80
2023/07/22 06:53:11;;;;;;;;;;;15.80;99.90;;;;;;7334607;19;9097;-80
2023/07/22 06:55:40;;;;;;;;;;;15.90;99.90;;;;;;7337543;19;11650;-80
2023/07/22 06:58:09;;;;;;;;;;;16.00;99.90;;;;;;7335650;19;10679;-80
2023/07/22 07:00:38;;;;;;;;;;;16.20;99.90;;;;;;7337331;19;9243;-80
2023/07/22 07:03:07;;;;;;;;;;;16.50;99.90;;;;;;7337552;19;8944;-80
2023/07/22 07:05:39;;;;;;;;;;;16.70;99.90;;;;;;7337381;19;9505;-80
2023/07/22 07:08:11;;;;;;;;;;;17.10;99.90;;;;;;7335473;19;9478;-80
2023/07/22 07:10:41;;;;;;;;;;;17.30;99.90;;;;;;7337097;19;9197;-80
2023/07/22 07:13:10;;;;;;;;;;;17.60;99.90;;;;;;7337254;19;9251;-80
2023/07/22 07:15:40;;;;;;;;;;;17.90;99.90;;;;;;7337003;19;10523;-80
2023/07/22 07:18:06;;;;;;;;;;;17.70;99.90;;;;;;7337183;19;9223;-80
2023/07/22 07:20:35;;;;;;;;;;;18.20;99.90;;;;;;7337006;19;9206;-80
2023/07/22 07:23:04;;;;;;;;;;;18.50;99.90;;;;;;7336040;19;9173;-79
2023/07/22 07:25:35;;;;;;;;;;;18.40;99.90;;;;;;7336703;19;9154;-80
2023/07/22 07:28:06;;;;;;;;;;;18.50;99.90;;;;;;7336969;19;9193;-80
2023/07/22 07:30:36;;;;;;;;;;;18.80;99.90;;;;;;7336383;19;9519;-80
2023/07/22 07:33:06;;;;;;;;;;;19.00;99.90;;;;;;7334531;19;9219;-80
2023/07/22 07:35:35;;;;;;;;;;;18.90;99.90;;;;;;7335519;19;9476;-80
2023/07/22 07:38:04;;;;;;;;;;;19.00;99.90;;;;;;7336946;19;9181;-80
2023/07/22 07:40:35;;;;;;;;;;;18.80;99.90;;;;;;7336319;19;9185;-80
2023/07/22 07:43:04;;;;;;;;;;;18.80;99.90;;;;;;7336237;19;9209;-80
2023/07/22 07:45:33;;;;;;;;;;;19.20;99.90;;;;;;7336290;19;9106;-80
2023/07/22 07:48:02;;;;;;;;;;;19.00;99.90;;;;;;7335944;19;9281;-80
2023/07/22 07:50:31;;;;;;;;;;;19.00;99.90;;;;;;7335803;19;10213;-80
2023/07/22 07:53:00;;;;;;;;;;;18.80;99.90;;;;;;7334877;19;9449;-79
2023/07/22 07:55:29;;;;;;;;;;;18.70;99.90;;;;;;7337178;19;9633;-79
2023/07/22 07:58:01;;;;;;;;;;;18.70;99.90;;;;;;7334697;19;9110;-79
2023/07/22 08:00:30;;;;;;;;;;;18.50;99.90;;;;;;7336121;19;9479;-80
2023/07/22 08:02:58;;;;;;;;;;;18.60;99.90;;;;;;7333230;19;9325;-80
2023/07/22 08:05:27;;;;;;;;;;;18.60;99.90;;;;;;7327756;19;9202;-80
2023/07/22 08:07:56;;;;;;;;;;;18.50;99.90;;;;;;7327661;19;9404;-80
2023/07/22 08:10:25;;;;;;;;;;;18.50;99.90;;;;;;7328612;19;9185;-79
2023/07/22 08:12:54;;;;;;;;;;;18.40;99.90;;;;;;7326687;19;8944;-80
2023/07/22 08:15:26;;;;;;;;;;;18.70;99.90;;;;;;7328578;19;9178;-80
2023/07/22 08:17:55;;;;;;;;;;;18.70;99.90;;;;;;7328557;19;9239;-80
2023/07/22 08:20:24;;;;;;;;;;;18.90;99.90;;;;;;7327425;19;10314;-80
2023/07/22 08:22:53;;;;;;;;;;;19.00;99.90;;;;;;7328389;19;9433;-80
2023/07/22 08:25:22;;;;;;;;;;;19.10;99.90;;;;;;7328321;19;9269;-79
2023/07/22 08:27:51;;;;;;;;;;;19.60;99.90;;;;;;7328129;19;9591;-79
2023/07/22 08:30:21;;;;;;;;;;;20.00;99.90;;;;;;7328108;19;9149;-80
2023/07/22 08:32:53;;;;;;;;;;;20.10;99.90;;;;;;7326400;19;8948;-80
2023/07/22 08:35:22;;;;;;;;;;;20.30;99.60;;;;;;7327153;19;9265;-80
2023/07/22 08:37:51;;;;;;;;;;;20.80;96.70;;;;;;7328140;19;9537;-81
2023/07/22 08:40:20;;;;;;;;;;;21.00;95.90;;;;;;7327831;19;9241;-81
2023/07/22 08:42:50;;;;;;;;;;;21.10;94.80;;;;;;7327618;19;9173;-80
2023/07/22 08:45:21;;;;;;;;;;;21.30;93.20;;;;;;7325886;19;10815;-80
2023/07/22 08:47:56;;;;;;;;;;;21.40;92.30;;;;;;7327439;19;9298;-80
2023/07/22 08:50:33;;;;;;;;;;;21.20;93.10;;;;;;7327826;19;9167;-80
2023/07/22 08:53:05;;;;;;;;;;;20.90;94.70;;;;;;7325893;19;10267;-80
2023/07/22 08:55:34;;;;;;;;;;;20.80;95.20;;;;;;7327707;19;9433;-81
2023/07/22 08:58:04;;;;;;;;;;;20.60;95.60;;;;;;7325484;19;9282;-80
2023/07/22 09:00:34;;;;;;;;;;;20.70;95.40;;;;;;7325727;19;11110;-80
2023/07/22 09:03:06;;;;;;;;;;;20.80;94.80;;;;;;7326206;19;9296;-81
2023/07/22 09:05:36;;;;;;;;;;;20.90;94.90;;;;;;7326826;19;9657;-81
2023/07/22 09:08:07;;;;;;;;;;;20.80;95.20;;;;;;7326093;19;9162;-80
2023/07/22 09:10:37;;;;;;;;;;;21.00;93.80;;;;;;7326679;19;9217;-80
2023/07/22 09:13:06;;;;;;;;;;;21.20;92.70;;;;;;7325035;19;9690;-80
2023/07/22 09:15:38;;;;;;;;;;;21.10;93.80;;;;;;7325967;19;9204;-80
2023/07/22 09:18:10;;;;;;;;;;;21.30;92.50;;;;;;7325803;19;9271;-80
2023/07/22 09:20:39;;;;;;;;;;;21.50;91.30;;;;;;7326082;19;9258;-81
2023/07/22 09:23:08;;;;;;;;;;;21.70;90.30;;;;;;7326231;19;10686;-80
2023/07/22 09:25:37;;;;;;;;;;;21.80;88.90;;;;;;7326183;19;9296;-80
2023/07/22 09:28:06;;;;;;;;;;;21.90;87.90;;;;;;7326249;19;9218;-81
2023/07/22 09:30:38;;;;;;;;;;;21.70;87.80;;;;;;7325519;19;9295;-80
2023/07/22 09:33:23;;;;;;;;;;;21.70;89.30;;;;;;7323783;19;9445;-80
2023/07/22 09:35:53;;;;;;;;;;;21.80;88.30;;;;;;7326152;19;9213;-81
2023/07/22 09:38:26;;;;;;;;;;;22.00;86.50;;;;;;7327444;19;9300;-80
2023/07/22 09:40:56;;;;;;;;;;;21.80;86.10;;;;;;7326070;19;9218;-80
2023/07/22 09:43:26;;;;;;;;;;;21.70;85.90;;;;;;7326027;19;9201;-81
2023/07/22 09:45:56;;;;;;;;;;;21.60;86.50;;;;;;7324625;19;9181;-80
2023/07/22 09:48:30;;;;;;;;;;;21.50;86.80;;;;;;7323712;19;10561;-80
2023/07/22 09:51:00;;;;;;;;;;;21.30;88.70;;;;;;7325508;19;9217;-81
2023/07/22 09:53:29;;;;;;;;;;;21.20;88.40;;;;;;7324250;19;9191;-80
2023/07/22 09:56:05;;;;;;;;;;;21.20;88.50;;;;;;7325467;19;10591;-80
2023/07/22 09:58:36;;;;;;;;;;;21.00;90.00;;;;;;7323742;19;8995;-80
2023/07/22 10:01:05;;;;;;;;;;;20.80;91.20;;;;;;7324563;19;9449;-81
2023/07/22 10:03:41;;;;;;;;;;;20.90;90.90;;;;;;7325787;19;9181;-80
2023/07/22 10:06:11;;;;;;;;;;;20.80;92.00;;;;;;7325887;19;9309;-80
2023/07/22 10:08:43;;;;;;;;;;;20.80;92.50;;;;;;7323482;19;9178;-80
2023/07/22 10:11:15;;;;;;;;;;;20.60;94.80;;;;;;7324066;19;9234;-80
2023/07/22 10:13:44;;;;;;;;;;;20.50;94.40;;;;;;7323622;19;9472;-80
2023/07/22 10:16:14;;;;;;;;;;;20.60;94.40;;;;;;7324128;19;8952;-80
2023/07/22 10:18:47;;;;;;;;;;;20.40;96.10;;;;;;7323755;19;9479;-80
2023/07/22 10:21:17;;;;;;;;;;;20.50;96.00;;;;;;7328032;19;9142;-80
2023/07/22 10:23:48;;;;;;;;;;;20.20;98.10;;;;;;7328753;19;9170;-80
2023/07/22 10:26:20;;;;;;;;;;;20.30;97.40;;;;;;7323715;19;9158;-80
2023/07/22 10:28:50;;;;;;;;;;;20.30;96.40;;;;;;7323915;19;9430;-80
2023/07/22 10:31:21;;;;;;;;;;;20.50;95.40;;;;;;7323310;19;9789;-81
2023/07/22 10:33:54;;;;;;;;;;;20.70;94.70;;;;;;7322289;19;9175;-80
2023/07/22 10:36:23;;;;;;;;;;;20.80;94.20;;;;;;7327973;19;9172;-80
2023/07/22 10:38:59;;;;;;;;;;;20.80;94.00;;;;;;7323894;19;9170;-80
2023/07/22 10:41:28;;;;;;;;;;;20.80;94.10;;;;;;7324244;19;9200;-81
2023/07/22 10:44:01;;;;;;;;;;;21.00;93.00;;;;;;7322894;19;9459;-80
2023/07/22 10:46:39;;;;;;;;;;;21.00;92.90;;;;;;7323729;19;10837;-80
2023/07/22 10:49:19;;;;;;;;;;;21.00;93.10;;;;;;7323537;19;9466;-80
2023/07/22 10:51:51;;;;;;;;;;;21.00;93.30;;;;;;7324310;19;9214;-80
2023/07/22 10:54:37;;;;;;;;;;;20.80;94.40;;;;;;7321923;19;9308;-80
2023/07/22 10:57:06;;;;;;;;;;;20.70;95.30;;;;;;7323098;19;9268;-80
2023/07/22 10:59:39;;;;;;;;;;;20.90;93.60;;;;;;7322959;19;9225;-80
2023/07/22 11:02:25;;;;;;;;;;;20.70;94.90;;;;;;7323983;19;8945;-81
2023/07/22 11:04:59;;;;;;;;;;;20.90;94.10;;;;;;7323425;19;9188;-80
2023/07/22 11:07:35;;;;;;;;;;;21.00;93.80;;;;;;7322930;19;9224;-80
2023/07/22 11:10:17;;;;;;;;;;;21.10;92.90;;;;;;7323319;19;9323;-80
2023/07/22 11:12:47;;;;;;;;;;;21.40;91.90;;;;;;7322587;19;9197;-80
2023/07/22 11:15:19;;;;;;;;;;;21.30;92.70;;;;;;7322266;19;9213;-80
2023/07/22 11:17:48;;;;;;;;;;;21.10;94.70;;;;;;7323585;19;9174;-80
2023/07/22 11:20:20;;;;;;;;;;;20.80;95.80;;;;;;7323121;19;10162;-81
2023/07/22 11:22:49;;;;;;;;;;;20.40;98.40;;;;;;7323070;19;9157;-81
2023/07/22 11:25:21;;;;;;;;;;;20.20;99.20;;;;;;7323030;19;9228;-80
2023/07/22 11:27:51;;;;;;;;;;;20.10;99.00;;;;;;7326215;19;9222;-81
2023/07/22 11:30:20;;;;;;;;;;;19.80;99.90;;;;;;7322711;19;9478;-81
2023/07/22 11:32:49;;;;;;;;;;;19.80;99.90;;;;;;7322140;19;9440;-81
2023/07/22 11:35:22;;;;;;;;;;;19.90;99.90;;;;;;7323294;19;9242;-81
2023/07/22 11:37:51;;;;;;;;;;;19.70;99.90;;;;;;7322618;19;9216;-80
2023/07/22 11:40:20;;;;;;;;;;;19.80;99.90;;;;;;7328625;19;11212;-80
2023/07/22 11:42:51;;;;;;;;;;;19.90;99.90;;;;;;7328924;19;9216;-81
2023/07/22 11:45:20;;;;;;;;;;;19.70;99.90;;;;;;7330197;19;9221;-80
2023/07/22 11:47:49;;;;;;;;;;;20.00;99.70;;;;;;7329619;19;9165;-80
2023/07/22 11:50:20;;;;;;;;;;;20.00;99.90;;;;;;7329364;19;9173;-80
2023/07/22 11:52:53;;;;;;;;;;;19.60;99.90;;;;;;7329033;19;9200;-81
2023/07/22 11:55:26;;;;;;;;;;;19.40;99.90;;;;;;7329679;19;9220;-81
2023/07/22 11:57:56;;;;;;;;;;;19.10;99.90;;;;;;7326947;19;9476;-81
2023/07/22 12:00:25;;;;;;;;;;;18.80;99.90;;;;;;7329353;19;9179;-81
2023/07/22 12:02:57;;;;;;;;;;;18.60;99.90;;;;;;7329416;19;9667;-81
2023/07/22 12:05:28;;;;;;;;;;;18.60;99.90;;;;;;7329192;19;9283;-81
2023/07/22 12:07:58;;;;;;;;;;;18.30;99.90;;;;;;7328513;19;9137;-80
2023/07/22 12:10:27;;;;;;;;;;;18.20;99.90;;;;;;7330030;19;9164;-81
2023/07/22 12:12:56;;;;;;;;;;;18.00;99.90;;;;;;7331322;19;9174;-80
2023/07/22 12:15:25;;;;;;;;;;;17.70;99.90;;;;;;7330295;19;8944;-80
2023/07/22 12:17:56;;;;;;;;;;;17.50;99.90;;;;;;7330019;19;9317;-80
2023/07/22 12:20:30;;;;;;;;;;;17.60;99.90;;;;;;7328874;19;9237;-80
2023/07/22 12:23:00;;;;;;;;;;;17.60;99.90;;;;;;7328851;19;9000;-80
2023/07/22 12:25:30;;;;;;;;;;;17.40;99.90;;;;;;7327537;19;9406;-80
2023/07/22 12:27:59;;;;;;;;;;;17.50;99.90;;;;;;7328519;19;9181;-80
2023/07/22 12:30:28;;;;;;;;;;;17.50;99.90;;;;;;7328068;19;9168;-81
2023/07/22 12:32:57;;;;;;;;;;;17.40;99.90;;;;;;7325034;19;9151;-80
2023/07/22 12:35:30;;;;;;;;;;;17.20;99.90;;;;;;7331555;19;9772;-80
2023/07/22 12:37:59;;;;;;;;;;;17.20;99.90;;;;;;7329861;19;9220;-81
2023/07/22 12:40:28;;;;;;;;;;;17.40;99.90;;;;;;7327217;19;9193;-80
2023/07/22 12:42:57;;;;;;;;;;;17.30;99.90;;;;;;7330993;19;9190;-80
2023/07/22 12:45:25;;;;;;;;;;;17.20;99.90;;;;;;7328129;19;9178;-80
2023/07/22 12:47:54;;;;;;;;;;;17.20;99.90;;;;;;7327508;19;9202;-80
2023/07/22 12:50:23;;;;;;;;;;;17.20;99.90;;;;;;7327594;19;9161;-80
2023/07/22 12:52:55;;;;;;;;;;;17.60;99.90;;;;;;7327215;19;9213;-80
2023/07/22 12:55:24;;;;;;;;;;;17.60;99.90;;;;;;7326296;19;9173;-80
2023/07/22 12:57:53;;;;;;;;;;;17.40;99.90;;;;;;7325821;19;9222;-80
2023/07/22 13:00:22;;;;;;;;;;;17.30;99.90;;;;;;7327263;19;9194;-80
2023/07/22 13:02:51;;;;;;;;;;;17.30;99.90;;;;;;7327274;19;9608;-80
2023/07/22 13:05:21;;;;;;;;;;;17.30;99.90;;;;;;7327120;19;9216;-80
2023/07/22 13:07:50;;;;;;;;;;;17.30;99.90;;;;;;7327868;19;9419;-80
2023/07/22 13:10:23;;;;;;;;;;;17.30;99.90;;;;;;7326052;19;9190;-80
2023/07/22 13:12:52;;;;;;;;;;;17.50;99.90;;;;;;7327073;19;9493;-80
2023/07/22 13:15:21;;;;;;;;;;;17.60;99.90;;;;;;7326869;19;9225;-80
2023/07/22 13:17:50;;;;;;;;;;;17.60;99.90;;;;;;7326776;19;9518;-80
2023/07/22 13:20:19;;;;;;;;;;;17.60;99.90;;;;;;7326324;19;9149;-80
2023/07/22 13:22:48;;;;;;;;;;;17.70;99.90;;;;;;7326851;19;8993;-80
2023/07/22 13:25:18;;;;;;;;;;;17.70;99.90;;;;;;7325774;19;9180;-80
2023/07/22 13:27:50;;;;;;;;;;;17.80;99.90;;;;;;7326357;19;9473;-80
2023/07/22 13:30:19;;;;;;;;;;;18.10;99.90;;;;;;7326513;19;9461;-80
2023/07/22 13:32:48;;;;;;;;;;;17.90;99.90;;;;;;7325909;19;9162;-81
2023/07/22 13:35:17;;;;;;;;;;;18.10;99.90;;;;;;7324218;19;9205;-81
2023/07/22 13:37:46;;;;;;;;;;;18.30;99.90;;;;;;7325729;19;9622;-80
2023/07/22 13:40:15;;;;;;;;;;;18.30;99.90;;;;;;7325113;19;9213;-80
2023/07/22 13:42:44;;;;;;;;;;;18.40;99.90;;;;;;7329491;19;9207;-81
2023/07/22 13:45:16;;;;;;;;;;;18.30;99.90;;;;;;7325913;19;9399;-80
2023/07/22 13:47:45;;;;;;;;;;;18.60;99.90;;;;;;7325732;19;9209;-81
2023/07/22 13:50:14;;;;;;;;;;;18.60;99.90;;;;;;7325775;19;9794;-81
2023/07/22 13:52:43;;;;;;;;;;;18.50;99.90;;;;;;7324546;19;9576;-81
2023/07/22 13:55:12;;;;;;;;;;;18.40;99.90;;;;;;7323908;19;9513;-81
2023/07/22 13:57:41;;;;;;;;;;;18.30;99.90;;;;;;7324560;19;9197;-80
2023/07/22 14:00:13;;;;;;;;;;;18.10;99.90;;;;;;7325339;19;9213;-81
2023/07/22 14:02:44;;;;;;;;;;;18.00;99.90;;;;;;7323445;19;9177;-81
2023/07/22 14:05:13;;;;;;;;;;;17.90;99.90;;;;;;7325255;19;9165;-81
2023/07/22 14:07:42;;;;;;;;;;;18.10;99.90;;;;;;7323981;19;9329;-80
2023/07/22 14:10:12;;;;;;;;;;;17.90;99.90;;;;;;7324967;19;9178;-80
2023/07/22 14:12:41;;;;;;;;;;;17.90;99.90;;;;;;7324931;19;9276;-80
2023/07/22 14:15:11;;;;;;;;;;;18.00;99.90;;;;;;7323126;19;10362;-81
2023/07/22 14:17:40;;;;;;;;;;;18.00;99.90;;;;;;7325093;19;10201;-80
2023/07/22 14:20:14;;;;;;;;;;;18.10;99.90;;;;;;7324709;19;9259;-81
2023/07/22 14:22:44;;;;;;;;;;;18.00;99.90;;;;;;7324019;19;9228;-81
2023/07/22 14:25:13;;;;;;;;;;;18.00;99.90;;;;;;7324915;19;9127;-80
2023/07/22 14:27:42;;;;;;;;;;;17.90;99.90;;;;;;7324804;19;9477;-80
2023/07/22 14:30:12;;;;;;;;;;;18.00;99.90;;;;;;7324362;19;9242;-80
2023/07/22 14:32:41;;;;;;;;;;;18.20;99.90;;;;;;7324187;19;10682;-80
2023/07/22 14:35:13;;;;;;;;;;;18.00;99.90;;;;;;7322999;19;9161;-80
2023/07/22 14:37:41;;;;;;;;;;;18.00;99.90;;;;;;7322905;19;9510;-80
2023/07/22 14:40:12;;;;;;;;;;;18.10;99.90;;;;;;7323951;19;10318;-81
2023/07/22 14:42:41;;;;;;;;;;;18.10;99.90;;;;;;7323743;19;9470;-80
2023/07/22 14:45:11;;;;;;;;;;;18.00;99.90;;;;;;7324049;19;9209;-80